Time;durP1;ratioP1;P1;durP2;ratioP2;P2;SDS_P1;SDS_P2;PMS_P1;PMS_P2;Temp;Humidity;BMP_temperature;BMP_pressure;BME280_temperature;BME280_humidity;BME280_pressure;Samples;Min_cycle;Max_cycle;Signal;HPM_P1;HPM_P2
2021/05/30 00:01:29;;;;;;;;;;;10.40;99.90;;;;;;5093066;28;19920;-75
2021/05/30 00:03:55;;;;;;;;;;;10.40;99.90;;;;;;5094263;28;19979;-75
2021/05/30 00:06:21;;;;;;;;;;;10.40;99.90;;;;;;5096092;28;19912;-75
2021/05/30 00:08:46;;;;;;;;;;;10.40;99.90;;;;;;5096795;28;19943;-75
2021/05/30 00:11:12;;;;;;;;;;;10.30;99.90;;;;;;5096095;28;19904;-75
2021/05/30 00:13:38;;;;;;;;;;;10.30;99.90;;;;;;5097287;28;19904;-75
2021/05/30 00:16:03;;;;;;;;;;;10.30;99.90;;;;;;5096546;28;20251;-75
2021/05/30 00:18:29;;;;;;;;;;;10.20;99.90;;;;;;5095776;28;19907;-75
2021/05/30 00:20:54;;;;;;;;;;;10.20;99.90;;;;;;5096402;28;19912;-75
2021/05/30 00:23:20;;;;;;;;;;;10.20;99.90;;;;;;5096565;28;20272;-75
2021/05/30 00:25:45;;;;;;;;;;;10.20;99.90;;;;;;5095538;28;20023;-74
2021/05/30 00:28:11;;;;;;;;;;;10.20;99.90;;;;;;5096196;28;19912;-75
2021/05/30 00:30:36;;;;;;;;;;;10.10;99.90;;;;;;5096455;28;19904;-75
2021/05/30 00:33:02;;;;;;;;;;;10.10;99.90;;;;;;5095513;28;20321;-75
2021/05/30 00:35:27;;;;;;;;;;;10.10;99.90;;;;;;5096125;28;19927;-75
2021/05/30 00:37:53;;;;;;;;;;;10.10;99.90;;;;;;5096138;28;19949;-75
2021/05/30 00:40:18;;;;;;;;;;;10.10;99.90;;;;;;5095055;28;19919;-75
2021/05/30 00:42:44;;;;;;;;;;;10.00;99.90;;;;;;5096049;28;19904;-75
2021/05/30 00:45:13;;;;;;;;;;;10.10;99.90;;;;;;5096021;28;20309;-75
2021/05/30 00:47:38;;;;;;;;;;;10.10;99.90;;;;;;5095084;28;20351;-75
2021/05/30 00:50:04;;;;;;;;;;;10.10;99.90;;;;;;5096166;28;19986;-75
2021/05/30 00:52:30;;;;;;;;;;;10.10;99.90;;;;;;5095682;28;19959;-74
2021/05/30 00:54:55;;;;;;;;;;;10.00;99.90;;;;;;5095141;28;19904;-74
2021/05/30 00:57:21;;;;;;;;;;;10.00;99.90;;;;;;5098668;28;20365;-76
2021/05/30 00:59:46;;;;;;;;;;;10.10;99.90;;;;;;5097831;28;19904;-75
2021/05/30 01:02:12;;;;;;;;;;;10.00;99.90;;;;;;5094874;28;19912;-74
2021/05/30 01:04:38;;;;;;;;;;;10.00;99.90;;;;;;5095664;28;19904;-75
2021/05/30 01:07:03;;;;;;;;;;;10.10;99.90;;;;;;5096396;28;20366;-75
2021/05/30 01:09:31;;;;;;;;;;;10.10;99.90;;;;;;5095167;28;19904;-74
2021/05/30 01:11:56;;;;;;;;;;;10.10;99.90;;;;;;5095701;28;19908;-77
2021/05/30 01:14:22;;;;;;;;;;;10.10;99.90;;;;;;5095735;28;19957;-76
2021/05/30 01:16:48;;;;;;;;;;;10.10;99.90;;;;;;5095156;28;20471;-76
2021/05/30 01:19:14;;;;;;;;;;;10.00;99.90;;;;;;5095477;28;19957;-76
2021/05/30 01:21:42;;;;;;;;;;;9.90;99.90;;;;;;5094507;28;19912;-76
2021/05/30 01:24:07;;;;;;;;;;;9.90;99.90;;;;;;5095285;28;19911;-76
2021/05/30 01:26:33;;;;;;;;;;;9.90;99.90;;;;;;5095404;28;19904;-76
2021/05/30 01:28:58;;;;;;;;;;;9.70;99.90;;;;;;5094641;28;20006;-74
2021/05/30 01:31:24;;;;;;;;;;;9.80;99.90;;;;;;5095197;28;20348;-75
2021/05/30 01:33:49;;;;;;;;;;;9.70;99.90;;;;;;5095073;28;20300;-76
2021/05/30 01:36:15;;;;;;;;;;;9.70;99.90;;;;;;5094515;28;19911;-76
2021/05/30 01:38:40;;;;;;;;;;;9.60;99.90;;;;;;5095066;28;20407;-73
2021/05/30 01:41:06;;;;;;;;;;;9.50;99.90;;;;;;5094770;28;19959;-74
2021/05/30 01:43:32;;;;;;;;;;;9.50;99.90;;;;;;5094500;28;19990;-74
2021/05/30 01:45:59;;;;;;;;;;;9.50;99.90;;;;;;5096133;28;19908;-74
2021/05/30 01:48:25;;;;;;;;;;;9.50;99.90;;;;;;5094960;28;20310;-76
2021/05/30 01:50:50;;;;;;;;;;;9.40;99.90;;;;;;5093990;28;19904;-76
2021/05/30 01:53:20;;;;;;;;;;;9.40;99.90;;;;;;5094727;28;19904;-75
2021/05/30 01:58:23;;;;;;;;;;;9.40;99.90;;;;;;5094526;28;19957;-76
2021/05/30 02:00:49;;;;;;;;;;;9.30;99.90;;;;;;5094883;28;19912;-76
2021/05/30 02:03:16;;;;;;;;;;;9.30;99.90;;;;;;5094817;28;19904;-76
2021/05/30 02:05:44;;;;;;;;;;;9.30;99.90;;;;;;5093519;28;19930;-75
2021/05/30 02:08:10;;;;;;;;;;;9.30;99.90;;;;;;5094617;28;19995;-77
2021/05/30 02:10:36;;;;;;;;;;;9.20;99.90;;;;;;5094342;28;19947;-76
2021/05/30 02:13:02;;;;;;;;;;;9.20;99.90;;;;;;5093789;28;19908;-75
2021/05/30 02:15:28;;;;;;;;;;;9.20;99.90;;;;;;5094271;28;19956;-76
2021/05/30 02:17:53;;;;;;;;;;;9.20;99.90;;;;;;5093703;28;19904;-75
2021/05/30 02:20:28;;;;;;;;;;;9.20;99.90;;;;;;5094176;28;19904;-75
2021/05/30 02:22:53;;;;;;;;;;;9.20;99.90;;;;;;5094471;28;19904;-75
2021/05/30 02:25:19;;;;;;;;;;;9.20;99.90;;;;;;5093365;28;19912;-75
2021/05/30 02:27:44;;;;;;;;;;;9.20;99.90;;;;;;5093903;28;19987;-75
2021/05/30 02:30:10;;;;;;;;;;;9.10;99.90;;;;;;5093982;28;19912;-75
2021/05/30 02:32:35;;;;;;;;;;;9.20;99.90;;;;;;5093382;28;19904;-75
2021/05/30 02:35:01;;;;;;;;;;;9.20;99.90;;;;;;5094014;28;19914;-75
2021/05/30 02:37:26;;;;;;;;;;;9.20;99.90;;;;;;5094058;28;20241;-76
2021/05/30 02:39:52;;;;;;;;;;;9.30;99.90;;;;;;5093150;28;20375;-75
2021/05/30 02:42:17;;;;;;;;;;;9.30;99.90;;;;;;5093854;28;19925;-75
2021/05/30 02:44:43;;;;;;;;;;;9.30;99.90;;;;;;5094015;28;19951;-75
2021/05/30 02:47:08;;;;;;;;;;;9.30;99.90;;;;;;5093098;28;19911;-75
2021/05/30 02:49:34;;;;;;;;;;;9.20;99.90;;;;;;5093503;28;19911;-75
2021/05/30 02:52:00;;;;;;;;;;;9.20;99.90;;;;;;5093824;28;20356;-75
2021/05/30 02:54:26;;;;;;;;;;;9.10;99.90;;;;;;5093054;28;20287;-75
2021/05/30 02:56:51;;;;;;;;;;;9.10;99.90;;;;;;5093578;28;19997;-75
2021/05/30 02:59:17;;;;;;;;;;;9.10;99.90;;;;;;5094075;28;19904;-76
2021/05/30 03:01:42;;;;;;;;;;;9.00;99.90;;;;;;5093008;28;19919;-76
2021/05/30 03:04:10;;;;;;;;;;;9.00;99.90;;;;;;5093739;28;19911;-76
2021/05/30 03:06:36;;;;;;;;;;;9.00;99.90;;;;;;5093211;28;20369;-76
2021/05/30 03:09:01;;;;;;;;;;;9.00;99.90;;;;;;5093078;28;19912;-76
2021/05/30 03:11:27;;;;;;;;;;;9.00;99.90;;;;;;5094936;28;19904;-76
2021/05/30 03:13:53;;;;;;;;;;;8.90;99.90;;;;;;5093889;28;19905;-75
2021/05/30 03:16:19;;;;;;;;;;;8.90;99.90;;;;;;5093428;28;20245;-76
2021/05/30 03:18:44;;;;;;;;;;;8.90;99.90;;;;;;5094196;28;19908;-75
2021/05/30 03:21:10;;;;;;;;;;;8.90;99.90;;;;;;5092701;28;19957;-76
2021/05/30 03:23:36;;;;;;;;;;;8.90;99.90;;;;;;5093329;28;19911;-75
2021/05/30 03:26:02;;;;;;;;;;;8.90;99.90;;;;;;5093520;28;19917;-75
2021/05/30 03:28:27;;;;;;;;;;;8.90;99.90;;;;;;5092624;28;19904;-75
2021/05/30 03:30:53;;;;;;;;;;;9.00;99.90;;;;;;5093692;28;20257;-75
2021/05/30 03:33:18;;;;;;;;;;;9.00;99.90;;;;;;5094021;28;19928;-75
2021/05/30 03:35:45;;;;;;;;;;;9.00;99.90;;;;;;5092604;28;19957;-75
2021/05/30 03:38:12;;;;;;;;;;;9.10;99.90;;;;;;5093278;28;19904;-75
2021/05/30 03:43:07;;;;;;;;;;;9.20;99.90;;;;;;5096979;28;19904;-75
2021/05/30 03:45:32;;;;;;;;;;;9.30;99.90;;;;;;5097805;28;19950;-75
2021/05/30 03:47:58;;;;;;;;;;;9.40;99.90;;;;;;5097403;28;19908;-75
2021/05/30 03:50:23;;;;;;;;;;;9.40;99.90;;;;;;5096614;28;19904;-75
2021/05/30 03:52:49;;;;;;;;;;;9.40;99.90;;;;;;5097345;28;19973;-76
2021/05/30 03:55:15;;;;;;;;;;;9.50;99.90;;;;;;5097175;28;19904;-75
2021/05/30 03:57:40;;;;;;;;;;;9.50;99.90;;;;;;5096702;28;19995;-76
2021/05/30 04:00:07;;;;;;;;;;;9.50;99.90;;;;;;5096862;28;19954;-76
2021/05/30 04:02:33;;;;;;;;;;;9.50;99.90;;;;;;5096880;28;19931;-76
2021/05/30 04:04:58;;;;;;;;;;;9.60;99.90;;;;;;5096388;28;19905;-75
2021/05/30 04:07:24;;;;;;;;;;;9.60;99.90;;;;;;5096742;28;20068;-73
2021/05/30 04:09:49;;;;;;;;;;;9.70;99.90;;;;;;5097014;28;19904;-74
2021/05/30 04:12:15;;;;;;;;;;;9.70;99.90;;;;;;5095982;28;19904;-74
2021/05/30 04:14:40;;;;;;;;;;;9.70;99.90;;;;;;5096826;28;19908;-74
2021/05/30 04:17:06;;;;;;;;;;;9.70;99.90;;;;;;5096609;28;20249;-76
2021/05/30 04:19:31;;;;;;;;;;;9.80;99.90;;;;;;5096045;28;19908;-76
2021/05/30 04:21:56;;;;;;;;;;;9.80;99.90;;;;;;5096769;28;19911;-76
2021/05/30 04:24:22;;;;;;;;;;;9.90;99.90;;;;;;5095845;28;19910;-76
2021/05/30 04:26:47;;;;;;;;;;;9.90;99.90;;;;;;5096667;28;19904;-76
2021/05/30 04:29:13;;;;;;;;;;;9.90;99.90;;;;;;5096516;28;20264;-76
2021/05/30 04:31:38;;;;;;;;;;;9.90;99.90;;;;;;5095598;28;19908;-76
2021/05/30 04:34:04;;;;;;;;;;;10.00;99.90;;;;;;5096379;28;20351;-76
2021/05/30 04:36:29;;;;;;;;;;;10.00;99.90;;;;;;5096320;28;19915;-76
2021/05/30 04:38:55;;;;;;;;;;;10.00;99.90;;;;;;5095413;28;20010;-76
2021/05/30 04:41:20;;;;;;;;;;;10.10;99.90;;;;;;5095041;28;20320;-76
2021/05/30 04:43:46;;;;;;;;;;;10.00;99.90;;;;;;5094966;28;19907;-76
2021/05/30 04:46:11;;;;;;;;;;;10.00;99.90;;;;;;5094132;28;20018;-77
2021/05/30 04:48:37;;;;;;;;;;;10.00;99.90;;;;;;5095153;28;19957;-76
2021/05/30 04:51:05;;;;;;;;;;;10.00;99.90;;;;;;5094389;28;19911;-76
2021/05/30 04:53:38;;;;;;;;;;;10.00;99.90;;;;;;5093869;28;19926;-76
2021/05/30 04:56:03;;;;;;;;;;;10.00;99.90;;;;;;5094767;28;19966;-76
2021/05/30 04:58:29;;;;;;;;;;;10.10;99.90;;;;;;5094853;28;20364;-76
2021/05/30 05:00:54;;;;;;;;;;;10.10;99.90;;;;;;5094093;28;19916;-76
2021/05/30 05:03:20;;;;;;;;;;;10.10;99.90;;;;;;5095077;28;19907;-77
2021/05/30 05:05:45;;;;;;;;;;;10.10;99.90;;;;;;5094773;28;19927;-75
2021/05/30 05:08:11;;;;;;;;;;;10.10;99.90;;;;;;5094031;28;19968;-75
2021/05/30 05:10:36;;;;;;;;;;;10.10;99.90;;;;;;5094807;28;19904;-75
2021/05/30 05:13:02;;;;;;;;;;;10.10;99.90;;;;;;5095402;28;19912;-75
2021/05/30 05:15:27;;;;;;;;;;;10.10;99.90;;;;;;5094971;28;19904;-76
2021/05/30 05:17:53;;;;;;;;;;;10.10;99.90;;;;;;5098930;28;19911;-74
2021/05/30 05:20:18;;;;;;;;;;;10.10;99.90;;;;;;5098749;28;20014;-74
2021/05/30 05:22:44;;;;;;;;;;;10.10;99.90;;;;;;5093827;28;19961;-74
2021/05/30 05:25:09;;;;;;;;;;;10.20;99.90;;;;;;5094144;28;20000;-75
2021/05/30 05:27:35;;;;;;;;;;;10.30;99.90;;;;;;5093977;28;19908;-74
2021/05/30 05:30:00;;;;;;;;;;;10.30;99.90;;;;;;5094003;28;20064;-74
2021/05/30 05:32:26;;;;;;;;;;;10.30;99.90;;;;;;5094507;28;19995;-75
2021/05/30 05:34:51;;;;;;;;;;;10.30;99.90;;;;;;5093846;28;19907;-75
2021/05/30 05:37:17;;;;;;;;;;;10.40;99.90;;;;;;5094443;28;19904;-76
2021/05/30 05:39:42;;;;;;;;;;;10.40;99.90;;;;;;5057510;28;1038310;-75
2021/05/30 05:42:08;;;;;;;;;;;10.50;99.90;;;;;;5094339;28;19923;-76
2021/05/30 05:44:33;;;;;;;;;;;10.50;99.90;;;;;;5094787;28;20008;-76
2021/05/30 05:46:59;;;;;;;;;;;10.50;99.90;;;;;;5095147;28;19904;-75
2021/05/30 05:49:24;;;;;;;;;;;10.60;99.90;;;;;;5094427;28;19904;-75
2021/05/30 05:51:50;;;;;;;;;;;10.60;99.90;;;;;;5095213;28;19935;-76
2021/05/30 05:54:15;;;;;;;;;;;10.70;99.90;;;;;;5094857;28;19904;-77
2021/05/30 05:56:41;;;;;;;;;;;10.70;99.90;;;;;;5093615;28;19908;-77
2021/05/30 05:59:06;;;;;;;;;;;10.70;99.90;;;;;;5094439;28;19950;-74
2021/05/30 06:01:32;;;;;;;;;;;10.80;99.90;;;;;;5093919;28;20011;-77
2021/05/30 06:03:57;;;;;;;;;;;10.80;99.90;;;;;;5094006;28;20386;-76
2021/05/30 06:06:23;;;;;;;;;;;10.90;99.90;;;;;;5094713;28;19919;-75
2021/05/30 06:08:48;;;;;;;;;;;10.90;99.90;;;;;;5094509;28;19904;-75
2021/05/30 06:11:14;;;;;;;;;;;11.00;99.90;;;;;;5094002;28;19994;-75
2021/05/30 06:13:39;;;;;;;;;;;11.00;99.90;;;;;;5094564;28;20232;-75
2021/05/30 06:16:06;;;;;;;;;;;11.00;99.90;;;;;;5094732;28;19956;-75
2021/05/30 06:18:32;;;;;;;;;;;11.10;99.90;;;;;;5093920;28;19915;-74
2021/05/30 06:20:58;;;;;;;;;;;11.00;99.90;;;;;;5094576;28;19912;-74
2021/05/30 06:23:23;;;;;;;;;;;11.10;99.90;;;;;;5094513;28;19911;-74
2021/05/30 06:25:48;;;;;;;;;;;11.10;99.90;;;;;;5075768;28;20007;-76
2021/05/30 06:28:14;;;;;;;;;;;11.10;99.90;;;;;;5094382;28;19994;-76
2021/05/30 06:30:41;;;;;;;;;;;11.40;99.90;;;;;;5094354;28;19912;-76
2021/05/30 06:33:07;;;;;;;;;;;11.10;99.90;;;;;;5093650;28;19904;-75
2021/05/30 06:35:33;;;;;;;;;;;11.20;99.90;;;;;;5094273;28;19978;-74
2021/05/30 06:38:00;;;;;;;;;;;11.30;99.90;;;;;;5093510;28;19933;-75
2021/05/30 06:40:26;;;;;;;;;;;11.40;99.90;;;;;;5093891;28;19916;-74
2021/05/30 06:42:51;;;;;;;;;;;11.50;99.90;;;;;;5094225;28;19931;-74
2021/05/30 06:45:17;;;;;;;;;;;11.50;99.90;;;;;;5093126;28;20572;-74
2021/05/30 06:47:42;;;;;;;;;;;11.60;99.90;;;;;;5093804;28;19904;-75
2021/05/30 06:50:08;;;;;;;;;;;11.60;99.90;;;;;;5093966;28;19956;-75
2021/05/30 06:52:33;;;;;;;;;;;11.70;99.90;;;;;;5093314;28;19904;-76
2021/05/30 06:54:59;;;;;;;;;;;11.80;99.90;;;;;;5094198;28;19911;-75
2021/05/30 06:57:25;;;;;;;;;;;11.80;99.90;;;;;;5093404;28;19929;-74
2021/05/30 06:59:50;;;;;;;;;;;11.80;99.90;;;;;;5093151;28;20267;-75
2021/05/30 07:02:16;;;;;;;;;;;11.90;99.90;;;;;;5093899;28;19912;-75
2021/05/30 07:04:41;;;;;;;;;;;12.00;99.90;;;;;;5094099;28;19908;-75
2021/05/30 07:07:07;;;;;;;;;;;12.00;99.90;;;;;;5094628;28;19904;-75
2021/05/30 07:09:32;;;;;;;;;;;12.10;99.90;;;;;;5093801;28;19931;-74
2021/05/30 07:11:58;;;;;;;;;;;12.10;99.90;;;;;;5093767;28;19950;-76
2021/05/30 07:14:23;;;;;;;;;;;12.20;99.90;;;;;;5092994;28;19904;-76
2021/05/30 07:16:49;;;;;;;;;;;12.20;99.90;;;;;;5093944;28;19911;-75
2021/05/30 07:19:14;;;;;;;;;;;12.20;99.90;;;;;;5093519;28;19998;-76
2021/05/30 07:21:40;;;;;;;;;;;12.30;99.90;;;;;;5093108;28;19918;-76
2021/05/30 07:24:05;;;;;;;;;;;12.30;99.90;;;;;;5093187;28;19950;-76
2021/05/30 07:26:31;;;;;;;;;;;12.40;99.90;;;;;;5092878;28;20008;-76
2021/05/30 07:28:57;;;;;;;;;;;12.50;99.90;;;;;;5092337;28;19911;-75
2021/05/30 07:31:22;;;;;;;;;;;12.50;99.90;;;;;;5092762;28;20348;-75
2021/05/30 07:33:48;;;;;;;;;;;12.50;99.90;;;;;;5093671;28;19957;-75
2021/05/30 07:36:14;;;;;;;;;;;12.60;99.90;;;;;;5092660;28;19904;-77
2021/05/30 07:38:39;;;;;;;;;;;12.60;99.90;;;;;;5093509;28;19926;-77
2021/05/30 07:41:04;;;;;;;;;;;12.70;99.90;;;;;;5092694;28;19951;-76
2021/05/30 07:43:30;;;;;;;;;;;12.80;99.90;;;;;;5092350;28;19976;-76
2021/05/30 07:45:55;;;;;;;;;;;12.90;99.90;;;;;;5093757;28;19904;-75
2021/05/30 07:48:21;;;;;;;;;;;13.00;99.90;;;;;;5092669;28;19908;-76
2021/05/30 07:50:47;;;;;;;;;;;13.00;99.90;;;;;;5093223;28;19904;-76
2021/05/30 07:53:13;;;;;;;;;;;13.10;99.90;;;;;;5093859;28;20259;-76
2021/05/30 07:55:38;;;;;;;;;;;13.20;99.90;;;;;;5092493;28;19908;-76
2021/05/30 07:58:04;;;;;;;;;;;13.20;99.90;;;;;;5093474;28;19927;-76
2021/05/30 08:00:29;;;;;;;;;;;13.30;99.90;;;;;;5092441;28;19908;-76
2021/05/30 08:02:55;;;;;;;;;;;13.30;99.90;;;;;;5092430;28;20348;-76
2021/05/30 08:05:21;;;;;;;;;;;13.30;99.90;;;;;;5093344;28;19904;-76
2021/05/30 08:07:50;;;;;;;;;;;14.50;99.90;;;;;;5093138;28;19904;-76
2021/05/30 08:10:17;;;;;;;;;;;13.50;99.90;;;;;;5092442;28;19904;-76
2021/05/30 08:12:42;;;;;;;;;;;13.60;99.90;;;;;;5093479;28;19908;-75
2021/05/30 08:15:09;;;;;;;;;;;13.70;99.90;;;;;;5093595;28;19957;-76
2021/05/30 08:17:35;;;;;;;;;;;13.80;99.90;;;;;;5092239;28;19950;-76
2021/05/30 08:20:00;;;;;;;;;;;13.80;99.90;;;;;;5093130;28;19916;-76
2021/05/30 08:22:26;;;;;;;;;;;13.90;99.90;;;;;;5092876;28;20023;-76
2021/05/30 08:24:53;;;;;;;;;;;14.00;99.90;;;;;;5093290;28;20029;-76
2021/05/30 08:27:18;;;;;;;;;;;14.00;99.90;;;;;;5096509;28;19915;-76
2021/05/30 08:29:44;;;;;;;;;;;14.00;99.90;;;;;;5096447;28;19904;-76
2021/05/30 08:32:09;;;;;;;;;;;14.20;99.90;;;;;;5096936;28;19952;-76
2021/05/30 08:34:36;;;;;;;;;;;14.20;99.90;;;;;;5096997;28;19904;-74
2021/05/30 08:37:02;;;;;;;;;;;14.40;99.90;;;;;;5096497;28;19908;-75
2021/05/30 08:39:28;;;;;;;;;;;14.40;99.90;;;;;;5096349;28;19908;-76
2021/05/30 08:41:53;;;;;;;;;;;14.40;99.90;;;;;;5096244;28;20047;-76
2021/05/30 08:44:19;;;;;;;;;;;14.50;99.90;;;;;;5096385;28;19911;-76
2021/05/30 08:46:44;;;;;;;;;;;14.60;99.90;;;;;;5095562;28;19950;-76
2021/05/30 08:49:10;;;;;;;;;;;14.70;99.90;;;;;;5096222;28;19904;-76
2021/05/30 08:51:37;;;;;;;;;;;14.80;99.90;;;;;;5095345;28;19911;-76
2021/05/30 08:54:18;;;;;;;;;;;14.80;99.90;;;;;;5096916;28;19904;-75
2021/05/30 08:56:45;;;;;;;;;;;14.90;99.90;;;;;;5096324;28;20364;-76
2021/05/30 08:59:30;;;;;;;;;;;15.00;99.90;;;;;;5094842;28;19949;-76
2021/05/30 09:01:59;;;;;;;;;;;15.10;99.90;;;;;;5096188;28;19912;-75
2021/05/30 09:04:29;;;;;;;;;;;15.20;99.90;;;;;;5096070;28;19904;-75
2021/05/30 09:06:54;;;;;;;;;;;15.20;99.90;;;;;;5095190;28;19911;-76
2021/05/30 09:09:20;;;;;;;;;;;15.20;99.90;;;;;;5096143;28;19904;-76
2021/05/30 09:11:48;;;;;;;;;;;15.30;99.90;;;;;;5095655;28;20055;-75
2021/05/30 09:14:17;;;;;;;;;;;15.30;99.90;;;;;;5094601;28;20378;-75
2021/05/30 09:16:57;;;;;;;;;;;15.30;99.90;;;;;;5095643;28;19904;-75
2021/05/30 09:19:36;;;;;;;;;;;15.50;99.90;;;;;;5097829;28;19959;-75
2021/05/30 09:22:14;;;;;;;;;;;15.60;99.90;;;;;;5094889;28;19916;-75
2021/05/30 09:24:40;;;;;;;;;;;15.70;99.90;;;;;;5098443;28;19910;-75
2021/05/30 09:27:08;;;;;;;;;;;15.70;99.90;;;;;;5095474;28;20338;-76
2021/05/30 09:29:34;;;;;;;;;;;15.80;99.90;;;;;;5095366;28;19957;-76
2021/05/30 09:31:59;;;;;;;;;;;15.90;99.90;;;;;;5094761;28;19904;-76
2021/05/30 09:34:29;;;;;;;;;;;16.00;99.90;;;;;;5094733;28;19991;-76
2021/05/30 09:36:55;;;;;;;;;;;16.10;99.90;;;;;;5093768;28;19914;-76
2021/05/30 09:39:36;;;;;;;;;;;16.20;99.90;;;;;;5094947;28;19939;-73
2021/05/30 09:42:20;;;;;;;;;;;16.40;99.90;;;;;;5094360;28;20021;-76
2021/05/30 09:44:55;;;;;;;;;;;16.40;99.90;;;;;;5095165;28;19904;-76
2021/05/30 09:47:31;;;;;;;;;;;16.60;99.90;;;;;;5095315;28;19912;-76
2021/05/30 09:49:56;;;;;;;;;;;16.70;99.90;;;;;;5094620;28;19928;-75
2021/05/30 09:52:36;;;;;;;;;;;16.80;99.90;;;;;;5095237;28;19904;-77
2021/05/30 09:55:10;;;;;;;;;;;16.80;99.90;;;;;;5095488;28;20272;-76
2021/05/30 09:57:36;;;;;;;;;;;17.00;99.90;;;;;;5095683;28;19904;-77
2021/05/30 10:00:01;;;;;;;;;;;17.20;99.90;;;;;;5096304;28;20309;-76
2021/05/30 10:02:27;;;;;;;;;;;17.40;99.90;;;;;;5095712;28;20386;-77
2021/05/30 10:04:52;;;;;;;;;;;17.60;99.90;;;;;;5095931;28;19986;-76
2021/05/30 10:07:18;;;;;;;;;;;17.70;99.90;;;;;;5095564;28;19904;-76
2021/05/30 10:09:45;;;;;;;;;;;17.70;99.90;;;;;;5094706;28;20379;-76
2021/05/30 10:12:11;;;;;;;;;;;17.60;99.90;;;;;;5095423;28;19904;-76
2021/05/30 10:14:37;;;;;;;;;;;17.70;99.90;;;;;;5095815;28;19965;-76
2021/05/30 10:17:03;;;;;;;;;;;17.90;99.90;;;;;;5095623;28;19950;-76
2021/05/30 10:19:39;;;;;;;;;;;18.00;99.90;;;;;;5098249;28;19904;-76
2021/05/30 10:22:07;;;;;;;;;;;18.20;99.90;;;;;;5096774;28;19947;-76
2021/05/30 10:24:38;;;;;;;;;;;18.40;99.90;;;;;;5095438;28;20264;-75
2021/05/30 10:27:15;;;;;;;;;;;18.50;99.90;;;;;;5094225;28;19908;-76
2021/05/30 10:29:40;;;;;;;;;;;17.90;99.90;;;;;;5094061;28;19911;-75
2021/05/30 10:32:19;;;;;;;;;;;18.50;99.90;;;;;;5093355;28;19908;-76
2021/05/30 10:35:03;;;;;;;;;;;18.60;99.90;;;;;;5094250;28;19904;-77
2021/05/30 10:37:28;;;;;;;;;;;18.70;99.90;;;;;;5093420;28;19904;-78
2021/05/30 10:39:56;;;;;;;;;;;18.60;99.90;;;;;;5093897;28;20387;-77
2021/05/30 10:42:23;;;;;;;;;;;18.50;99.90;;;;;;5094251;28;19941;-77
2021/05/30 10:45:03;;;;;;;;;;;18.50;99.90;;;;;;5094371;28;19904;-75
2021/05/30 10:47:40;;;;;;;;;;;18.60;99.90;;;;;;5094173;28;19904;-74
2021/05/30 10:50:13;;;;;;;;;;;18.60;99.90;;;;;;5095858;28;19904;-77
2021/05/30 10:52:41;;;;;;;;;;;18.60;99.90;;;;;;5096858;28;19904;-76
2021/05/30 10:55:12;;;;;;;;;;;18.70;99.90;;;;;;5095266;28;19915;-75
2021/05/30 10:57:50;;;;;;;;;;;18.80;99.90;;;;;;5094360;28;19908;-75
2021/05/30 11:00:22;;;;;;;;;;;18.80;99.90;;;;;;5093924;28;20245;-75
2021/05/30 11:02:59;;;;;;;;;;;18.90;99.90;;;;;;5094066;28;19912;-76
2021/05/30 11:05:40;;;;;;;;;;;19.00;99.90;;;;;;5093075;28;20360;-76
2021/05/30 11:08:05;;;;;;;;;;;19.10;99.90;;;;;;5094085;28;19911;-76
2021/05/30 11:10:32;;;;;;;;;;;19.20;99.90;;;;;;5093613;28;19908;-75
2021/05/30 11:12:59;;;;;;;;;;;19.30;99.90;;;;;;5094520;28;19930;-76
2021/05/30 11:15:25;;;;;;;;;;;19.40;99.60;;;;;;5094366;28;19911;-77
2021/05/30 11:17:55;;;;;;;;;;;19.40;99.90;;;;;;5093363;28;20351;-77
2021/05/30 11:20:28;;;;;;;;;;;19.50;99.50;;;;;;5092939;28;19908;-75
2021/05/30 11:23:04;;;;;;;;;;;19.50;98.90;;;;;;5095180;28;19912;-76
2021/05/30 11:25:45;;;;;;;;;;;19.60;99.10;;;;;;5093668;28;19904;-76
2021/05/30 11:28:15;;;;;;;;;;;19.60;98.20;;;;;;5092816;28;19911;-76
2021/05/30 11:30:45;;;;;;;;;;;19.50;97.90;;;;;;5093346;28;19950;-76
2021/05/30 11:33:15;;;;;;;;;;;19.50;98.60;;;;;;5093366;28;19904;-76
2021/05/30 11:35:41;;;;;;;;;;;19.50;98.10;;;;;;5092667;28;19911;-76
2021/05/30 11:38:07;;;;;;;;;;;19.60;98.20;;;;;;5093470;28;19904;-76
2021/05/30 11:40:34;;;;;;;;;;;19.60;97.70;;;;;;5092155;28;20439;-76
2021/05/30 11:43:16;;;;;;;;;;;19.70;97.70;;;;;;5093080;28;20314;-76
2021/05/30 11:45:43;;;;;;;;;;;19.80;97.00;;;;;;5093354;28;19999;-76
2021/05/30 11:48:12;;;;;;;;;;;19.80;96.70;;;;;;5092542;28;19926;-75
2021/05/30 11:50:50;;;;;;;;;;;19.70;94.90;;;;;;5093354;28;19926;-76
2021/05/30 11:53:34;;;;;;;;;;;19.80;95.00;;;;;;5093791;28;19904;-76
2021/05/30 11:56:01;;;;;;;;;;;19.80;93.90;;;;;;5093223;28;19904;-76
2021/05/30 11:58:27;;;;;;;;;;;19.80;94.10;;;;;;5093088;28;19955;-76
2021/05/30 12:00:56;;;;;;;;;;;19.80;95.10;;;;;;5095705;28;19915;-75
2021/05/30 12:03:22;;;;;;;;;;;19.90;95.50;;;;;;5097262;28;19908;-75
2021/05/30 12:05:54;;;;;;;;;;;20.00;94.40;;;;;;5096401;28;19927;-76
2021/05/30 12:08:20;;;;;;;;;;;20.10;93.40;;;;;;5097066;28;19908;-76
2021/05/30 12:10:53;;;;;;;;;;;20.10;92.50;;;;;;5096691;28;19990;-74
2021/05/30 12:13:28;;;;;;;;;;;20.10;92.20;;;;;;5097400;28;19904;-76
2021/05/30 12:15:54;;;;;;;;;;;20.10;92.40;;;;;;5095810;28;19943;-76
2021/05/30 12:18:21;;;;;;;;;;;20.20;92.20;;;;;;5078793;28;19904;-76
2021/05/30 12:20:47;;;;;;;;;;;20.30;91.00;;;;;;5096500;28;19914;-75
2021/05/30 12:23:13;;;;;;;;;;;20.30;91.30;;;;;;5095717;28;19904;-75
2021/05/30 12:25:49;;;;;;;;;;;20.30;90.40;;;;;;5096579;28;19904;-76
2021/05/30 12:28:14;;;;;;;;;;;20.30;90.70;;;;;;5096435;28;19904;-76
2021/05/30 12:30:40;;;;;;;;;;;20.50;91.00;;;;;;5095625;28;20383;-77
2021/05/30 12:33:05;;;;;;;;;;;20.50;90.50;;;;;;5096266;28;20028;-75
2021/05/30 12:35:43;;;;;;;;;;;20.60;88.80;;;;;;5096201;28;19915;-75
2021/05/30 12:38:12;;;;;;;;;;;20.60;88.90;;;;;;5095419;28;19904;-77
2021/05/30 12:40:37;;;;;;;;;;;20.80;90.00;;;;;;5096206;28;19919;-75
2021/05/30 12:43:03;;;;;;;;;;;21.10;86.80;;;;;;5096530;28;19957;-77
2021/05/30 12:45:30;;;;;;;;;;;21.30;85.10;;;;;;5096303;28;19961;-76
2021/05/30 12:47:56;;;;;;;;;;;21.50;85.00;;;;;;5097274;28;19986;-77
2021/05/30 12:50:21;;;;;;;;;;;21.60;82.90;;;;;;5096005;28;20283;-75
2021/05/30 12:52:54;;;;;;;;;;;21.70;81.30;;;;;;5095201;28;19936;-76
2021/05/30 12:55:21;;;;;;;;;;;21.60;75.90;;;;;;5096068;28;19904;-76
2021/05/30 12:57:48;;;;;;;;;;;21.70;77.70;;;;;;5095306;28;19904;-76
2021/05/30 13:00:13;;;;;;;;;;;21.90;77.70;;;;;;5095520;28;20303;-76
2021/05/30 13:02:39;;;;;;;;;;;22.20;76.70;;;;;;5095511;28;19922;-75
2021/05/30 13:05:05;;;;;;;;;;;22.30;74.60;;;;;;5095073;28;19941;-74
2021/05/30 13:07:35;;;;;;;;;;;22.40;73.30;;;;;;5095874;28;19908;-76
2021/05/30 13:10:03;;;;;;;;;;;22.40;71.30;;;;;;5095910;28;19912;-75
2021/05/30 13:12:40;;;;;;;;;;;22.50;71.00;;;;;;5094948;28;19904;-75
2021/05/30 13:15:12;;;;;;;;;;;22.60;70.50;;;;;;5096281;28;19926;-76
2021/05/30 13:17:39;;;;;;;;;;;22.70;70.50;;;;;;5095912;28;20007;-75
2021/05/30 13:20:10;;;;;;;;;;;22.80;69.70;;;;;;5094492;28;19983;-75
2021/05/30 13:22:55;;;;;;;;;;;22.90;69.00;;;;;;5095235;28;19918;-75
2021/05/30 13:25:31;;;;;;;;;;;23.00;67.30;;;;;;5096175;28;19904;-76
2021/05/30 13:28:13;;;;;;;;;;;22.90;64.80;;;;;;5094682;28;19904;-75
2021/05/30 13:30:39;;;;;;;;;;;23.00;65.20;;;;;;5095234;28;20309;-75
2021/05/30 13:33:04;;;;;;;;;;;23.20;64.90;;;;;;5094336;28;20409;-76
2021/05/30 13:35:30;;;;;;;;;;;23.40;64.40;;;;;;5094649;28;19908;-77
2021/05/30 13:37:55;;;;;;;;;;;23.50;64.70;;;;;;5094961;28;19904;-75
2021/05/30 13:40:21;;;;;;;;;;;23.50;64.10;;;;;;5094181;28;20387;-75
2021/05/30 13:42:46;;;;;;;;;;;23.60;63.30;;;;;;5094877;28;19912;-75
2021/05/30 13:45:12;;;;;;;;;;;23.60;61.40;;;;;;5094896;28;19949;-75
2021/05/30 13:47:38;;;;;;;;;;;23.60;60.60;;;;;;5093877;28;20372;-75
2021/05/30 13:50:03;;;;;;;;;;;23.60;61.60;;;;;;5094623;28;19915;-78
2021/05/30 13:52:29;;;;;;;;;;;23.60;60.10;;;;;;5095342;28;20322;-75
2021/05/30 13:54:54;;;;;;;;;;;23.80;59.40;;;;;;5093593;28;19904;-75
2021/05/30 13:57:20;;;;;;;;;;;23.90;59.20;;;;;;5095022;28;19993;-76
2021/05/30 13:59:45;;;;;;;;;;;24.10;59.40;;;;;;5095215;28;20352;-76
2021/05/30 14:02:10;;;;;;;;;;;24.20;58.50;;;;;;5093745;28;20251;-76
2021/05/30 14:04:36;;;;;;;;;;;24.40;58.10;;;;;;5094625;28;19911;-76
2021/05/30 14:07:01;;;;;;;;;;;24.60;58.50;;;;;;5094681;28;19917;-77
2021/05/30 14:09:27;;;;;;;;;;;24.70;57.50;;;;;;5094363;28;19904;-77
2021/05/30 14:11:53;;;;;;;;;;;24.80;56.10;;;;;;5094600;28;19904;-75
2021/05/30 14:14:19;;;;;;;;;;;24.80;55.20;;;;;;5094670;28;19904;-76
2021/05/30 14:16:46;;;;;;;;;;;24.80;54.50;;;;;;5094635;28;19904;-77
2021/05/30 14:19:11;;;;;;;;;;;24.80;54.70;;;;;;5096255;28;20050;-75
2021/05/30 14:21:37;;;;;;;;;;;24.90;54.70;;;;;;5094215;28;20002;-76
2021/05/30 14:24:02;;;;;;;;;;;25.00;54.50;;;;;;5093863;28;19911;-75